Arklow Wind — EIKZ — position and weather

sailwx.info

Track history (hours):
 
Tides and Currents Weather Stations Pressure Air Temp Water Temp Dewpoint Dewpoint Depression Visibility Wind Speed Wind Dir Waves Ship Positions

Arklow Wind

Last reported at 2017-May-23 06:30 UTC. Time now 2017-May-23 06:55 UTC.
Position N 38°50' W 010°06'.

Length 136 m; draft 5.5 m.

Type: Cargo ship. MMSI: 250506000.

Date/timePositionNaut miles runAvg speedWind from/ knotsBaromVisibWave heightAir tempDewpointWater temp
2017-May-23 06:30N 38°50' W 010°06'612.2
2017-May-23 06:00N 38°56' W 010°06'612.1
2017-May-23 05:30N 39°02' W 010°06'612.3
2017-May-23 05:00N 39°09' W 010°07'612.3
2017-May-23 04:30N 39°15' W 010°06'811.7
2017-May-23 03:50N 39°23' W 010°07'711.9
2017-May-23 03:17N 39°29' W 010°06'311.8
2017-May-23 03:00N 39°32' W 010°06'612.0
2017-May-23 02:30N 39°38' W 010°06'1811.9
2017-May-23 01:02N 39°56' W 010°07'111.9
2017-May-23 00:59N 39°56' W 010°07'911.9
2017-May-23 00:13N 40°06' W 010°07'612.0
2017-May-22 23:43N 40°12' W 010°07'312.1
2017-May-22 23:26N 40°15' W 010°07'911.9
2017-May-22 22:42N 40°24' W 010°07'312.0
2017-May-22 22:25N 40°27' W 010°07'812.0
2017-May-22 21:44N 40°35' W 010°07'712.1
2017-May-22 21:07N 40°43' W 010°07'512.1
2017-May-22 20:41N 40°48' W 010°07'53711.5
2017-May-20 21:54N 49°05' W 005°20'511.1
2017-May-20 21:29N 49°07' W 005°14'7211.7
2017-May-20 15:18N 49°43' W 003°38'411.0
2017-May-20 14:56N 49°45' W 003°32'510.8
2017-May-20 14:30N 49°48' W 003°26'1110.6
2017-May-20 13:30N 49°53' W 003°12'510.7
2017-May-20 13:00N 49°56' W 003°05'510.8
2017-May-20 12:30N 49°57' W 002°57'511.0
2017-May-20 12:00N 49°59' W 002°48'611.2
2017-May-20 11:30N 50°00' W 002°40'7512.7
2017-May-20 05:36N 49°41' W 000°47'112.1
2017-May-20 05:30N 49°40' W 000°45'611.9
2017-May-20 05:00N 49°38' W 000°37'611.5
2017-May-20 04:30N 49°36' W 000°29'611.2
2017-May-20 04:00N 49°34' W 000°21'611.3
2017-May-20 03:30N 49°31' W 000°13'611.5
2017-May-20 03:00N 49°29' W 000°05'510.7
2017-May-20 02:30N 49°27' E 000°03'510.9
2017-May-20 02:00N 49°26' E 000°11'5 9.8
2017-May-20 01:30N 49°26' E 000°18'5 9.8
2017-May-20 01:00N 49°27' E 000°26'4 7.9
2017-May-20 00:30N 49°29' E 000°31'4 8.2
2017-May-20 00:00N 49°26' E 000°36'  
2017-May-17 13:34N 49°28' E 000°56'5 5.1
2017-May-17 12:37N 49°27' E 000°49'112.4
2017-May-17 12:31N 49°28' E 000°49'6 7.7
2017-May-17 11:45N 49°29' E 000°40'313.4
2017-May-17 11:30N 49°26' E 000°37'611.7
2017-May-17 11:00N 49°29' E 000°30'612.7
2017-May-17 10:30N 49°26' E 000°21'714.0
2017-May-17 10:00N 49°26' E 000°11'713.4
2017-May-17 09:30N 49°28' E 000°01'612.1
2017-May-17 09:00N 49°30' W 000°08'611.4
2017-May-17 08:30N 49°36' W 000°11'612.7
2017-May-17 08:00N 49°42' W 000°09'612.5
2017-May-17 07:30N 49°48' W 000°08'611.4
2017-May-17 07:00N 49°54' W 000°07'510.0
2017-May-17 06:30N 49°59' W 000°07'611.4
2017-May-17 06:00N 50°05' W 000°07'713.4
2017-May-17 05:30N 50°11' W 000°07'713.5
2017-May-17 05:00N 50°18' W 000°05'713.6
2017-May-17 04:30N 50°25' W 000°03'612.5
2017-May-17 04:00N 50°29' E 000°04'713.3
2017-May-17 03:30N 50°32' E 000°13'612.7
2017-May-17 03:01N 50°35' E 000°22'612.5
2017-May-17 02:30N 50°38' E 000°31'612.4
2017-May-17 02:01N 50°41' E 000°39'612.3
2017-May-17 01:30N 50°44' E 000°47'612.4
2017-May-17 01:00N 50°48' E 000°55'612.9
2017-May-17 00:31N 50°52' E 001°03'713.3
2017-May-17 00:00N 50°56' E 001°11'714.1
2017-May-16 23:30N 51°00' E 001°20'815.2
2017-May-16 23:00N 51°05' E 001°29'815.8
2017-May-16 22:30N 51°10' E 001°39'714.9
2017-May-16 22:00N 51°16' E 001°48'714.5
2017-May-16 21:30N 51°21' E 001°55'611.4
2017-May-16 21:00N 51°24' E 002°03'713.6
2017-May-16 20:30N 51°21' E 002°13'612.8
2017-May-16 20:00N 51°21' E 002°23'713.2
2017-May-16 19:28N 51°23' E 002°34'613.2
2017-May-16 18:59N 51°22' E 002°44'612.2
2017-May-16 18:30N 51°23' E 002°53'612.0
2017-May-16 18:00N 51°25' E 003°03'612.3
2017-May-16 17:30N 51°25' E 003°12'612.3
2017-May-16 17:00N 51°25' E 003°22'612.1
2017-May-16 16:30N 51°25' E 003°32'510.1
2017-May-16 16:00N 51°25' E 003°40'611.4
2017-May-16 15:30N 51°21' E 003°47'510.1
2017-May-16 15:00N 51°22' E 003°55'510.1
2017-May-16 14:30N 51°26' E 004°00'8 8.4
2017-May-16 13:30N 51°23' E 004°13'4 7.6
2017-May-16 13:00N 51°21' E 004°17'0 0.0
2017-May-16 12:30N 51°21' E 004°17'0 0.0
2017-May-16 12:01N 51°21' E 004°17'1 1.6
2017-May-16 11:30N 51°20' E 004°18'2 3.7
2017-May-16 11:00N 51°18' E 004°19'2 4.0
2017-May-16 10:30N 51°17' E 004°21'2 3.2
2017-May-16 10:00N 51°16' E 004°22'0 0.0
2017-May-16 09:30N 51°16' E 004°22'0 0.0
2017-May-16 09:00N 51°16' E 004°22'0 0.0
2017-May-16 08:30N 51°16' E 004°22'0 0.0
2017-May-16 08:00N 51°16' E 004°22'0 0.0
2017-May-16 07:30N 51°16' E 004°22'0 0.0
2017-May-16 07:00N 51°16' E 004°22'0 0.0
2017-May-16 06:30N 51°16' E 004°22'0 0.0
2017-May-16 06:00N 51°16' E 004°22'0 0.0
2017-May-16 05:30N 51°16' E 004°22'0 0.0
2017-May-16 05:00N 51°16' E 004°22'0 0.0
2017-May-16 04:30N 51°16' E 004°22'0 0.0
2017-May-16 04:00N 51°16' E 004°22'0 0.0
2017-May-16 03:30N 51°16' E 004°22'0 0.0
2017-May-16 03:00N 51°16' E 004°22'0 0.0
2017-May-16 02:30N 51°16' E 004°22'0 0.0
2017-May-16 02:00N 51°16' E 004°22'0 0.0
2017-May-16 01:30N 51°16' E 004°22'0 0.0
2017-May-16 00:57N 51°16' E 004°22'0 0.0
2017-May-16 00:30N 51°16' E 004°22'0 0.0
2017-May-16 00:00N 51°16' E 004°22'0 0.0
2017-May-15 23:30N 51°16' E 004°22'0 0.0
2017-May-15 23:00N 51°16' E 004°22'0 0.0
2017-May-15 22:30N 51°16' E 004°22'0 0.0
2017-May-15 22:00N 51°16' E 004°22'0 0.0
2017-May-15 21:30N 51°16' E 004°22'0 0.0
2017-May-15 21:00N 51°16' E 004°22'0 0.0
2017-May-15 20:30N 51°16' E 004°22'0 0.0
2017-May-15 20:00N 51°16' E 004°22'0 0.0
2017-May-15 19:30N 51°16' E 004°22'0 0.0
2017-May-15 19:00N 51°16' E 004°22'0 0.0
2017-May-15 18:30N 51°16' E 004°22'0 0.0
2017-May-15 18:00N 51°16' E 004°22'0 0.0
2017-May-15 17:30N 51°16' E 004°22'0 0.0
2017-May-15 17:00N 51°16' E 004°22'0 0.0
2017-May-15 16:30N 51°16' E 004°22'0 0.0
2017-May-15 16:00N 51°16' E 004°22'0 0.0
2017-May-15 15:30N 51°16' E 004°22'0 0.0
2017-May-15 14:57N 51°16' E 004°22'0 0.0
2017-May-15 14:00N 51°16' E 004°22'0 0.0
2017-May-15 13:30N 51°16' E 004°22'0 0.0
2017-May-15 13:00N 51°16' E 004°22'0 0.0
2017-May-15 12:30N 51°16' E 004°22'0 0.0
2017-May-15 12:00N 51°16' E 004°22'0 0.0
2017-May-15 11:30N 51°16' E 004°22'0 0.0
2017-May-15 11:00N 51°16' E 004°22'0 0.0
2017-May-15 10:30N 51°16' E 004°22'0 0.0
2017-May-15 10:00N 51°16' E 004°22'0 0.0
2017-May-15 09:30N 51°16' E 004°22'0 0.0
2017-May-15 09:00N 51°16' E 004°22'0 0.0
2017-May-15 08:30N 51°16' E 004°22'0 0.0
2017-May-15 08:00N 51°16' E 004°22'0 0.0
2017-May-15 07:30N 51°16' E 004°22'0 0.0
2017-May-15 07:00N 51°16' E 004°22'0 0.0
2017-May-15 06:30N 51°16' E 004°22'0 0.0
2017-May-15 06:00N 51°16' E 004°22'0 0.0
2017-May-15 05:30N 51°16' E 004°22'0 0.0
2017-May-15 05:00N 51°16' E 004°22'0 0.0
2017-May-15 04:30N 51°16' E 004°22'0 0.0
2017-May-15 04:00N 51°16' E 004°22'0 0.0
2017-May-15 03:29N 51°16' E 004°22'0 0.0
2017-May-15 03:00N 51°16' E 004°22'0 0.0
2017-May-15 02:29N 51°16' E 004°22'0 0.0
2017-May-15 01:59N 51°16' E 004°22'0 0.0
2017-May-15 01:29N 51°16' E 004°22'0 0.0
2017-May-15 00:59N 51°16' E 004°22'0 0.0
2017-May-15 00:29N 51°16' E 004°22'0 0.0
2017-May-14 23:50N 51°16' E 004°22'0 0.0
2017-May-14 23:29N 51°16' E 004°22'0 0.0
2017-May-14 22:59N 51°16' E 004°22'0 0.0
2017-May-14 22:29N 51°16' E 004°22'0 0.0
2017-May-14 21:59N 51°16' E 004°22'0 0.0
2017-May-14 21:29N 51°16' E 004°22'0 0.0
2017-May-14 20:59N 51°16' E 004°22'0 0.0
2017-May-14 20:29N 51°16' E 004°22'0 0.0
2017-May-14 19:59N 51°16' E 004°22'0 0.0
2017-May-14 19:29N 51°16' E 004°22'0 0.0
2017-May-14 18:59N 51°16' E 004°22'0 0.0
2017-May-14 18:29N 51°16' E 004°22'0 0.0
2017-May-14 17:59N 51°16' E 004°22'0 0.0
2017-May-14 17:29N 51°16' E 004°22'0 0.0
2017-May-14 16:59N 51°16' E 004°22'0 0.0
2017-May-14 16:29N 51°16' E 004°22'0 0.0
2017-May-14 15:59N 51°16' E 004°22'0 0.0
2017-May-14 15:29N 51°16' E 004°22'0 0.0
2017-May-14 14:59N 51°16' E 004°22'0 0.0
2017-May-14 14:29N 51°16' E 004°22'0 0.0
2017-May-14 13:29N 51°16' E 004°22'0 0.0
2017-May-14 12:59N 51°16' E 004°22'0 0.0
2017-May-14 12:29N 51°16' E 004°22'0 0.0
2017-May-14 11:59N 51°16' E 004°22'0 0.0
2017-May-14 11:29N 51°16' E 004°22'0 0.0
2017-May-14 10:59N 51°16' E 004°22'0 0.0
2017-May-14 10:29N 51°16' E 004°22'0 0.0
2017-May-14 09:59N 51°16' E 004°22'0 0.0
2017-May-14 09:29N 51°16' E 004°22'0 0.0
2017-May-14 08:59N 51°16' E 004°22'0 0.0
2017-May-14 08:29N 51°16' E 004°22'0 0.0
2017-May-14 07:59N 51°16' E 004°22'0 0.0
2017-May-14 07:29N 51°16' E 004°22'0 0.0
2017-May-14 06:59N 51°16' E 004°22'0 0.0
2017-May-14 06:29N 51°16' E 004°22'0 0.0
2017-May-14 05:59N 51°16' E 004°22'0 0.0
2017-May-14 05:29N 51°16' E 004°22'0 0.0
2017-May-14 04:59N 51°16' E 004°22'0 0.0
2017-May-14 04:29N 51°16' E 004°22'0 0.0
2017-May-14 03:59N 51°16' E 004°22'0 0.0
2017-May-14 03:29N 51°16' E 004°22'0 0.0
2017-May-14 02:59N 51°16' E 004°22'0 0.0
2017-May-14 02:29N 51°16' E 004°22'0 0.0
2017-May-14 01:59N 51°16' E 004°22'0 0.0
2017-May-14 01:29N 51°16' E 004°22'0 0.0
2017-May-14 00:59N 51°16' E 004°22'0 0.0
2017-May-14 00:29N 51°16' E 004°22'0 0.0
2017-May-13 23:59N 51°16' E 004°22'0 0.0
2017-May-13 23:29N 51°16' E 004°22'0 0.0
2017-May-13 22:59N 51°16' E 004°22'0 0.0
2017-May-13 22:29N 51°16' E 004°22'0 0.0
2017-May-13 21:59N 51°16' E 004°22'0 0.0
2017-May-13 21:29N 51°16' E 004°22'0 0.0
2017-May-13 20:59N 51°16' E 004°22'0 0.0
2017-May-13 20:29N 51°16' E 004°22'0 0.0
2017-May-13 19:59N 51°16' E 004°22'0 0.3
2017-May-13 19:30N 51°16' E 004°22'2 3.6
2017-May-13 19:00N 51°17' E 004°20'3 5.9
2017-May-13 18:30N 51°20' E 004°18'1 2.8
2017-May-13 18:00N 51°21' E 004°17'1 1.6
2017-May-13 17:30N 51°21' E 004°16'4 8.2
2017-May-13 17:00N 51°24' E 004°11'511.0
2017-May-13 16:30N 51°23' E 004°03'4 7.6
2017-May-13 16:00N 51°25' E 003°58'612.4
2017-May-13 15:30N 51°21' E 003°50'612.8
2017-May-13 15:00N 51°24' E 003°42'612.2
2017-May-13 14:30N 51°25' E 003°32'1515.2
2017-May-13 13:31N 51°24' E 003°08'713.5
2017-May-13 13:01N 51°22' E 002°57'714.3
2017-May-13 12:30N 51°22' E 002°46'610.1
2017-May-13 11:57N 51°22' E 002°37'3 7.4
2017-May-13 11:29N 51°22' E 002°31'4 7.7
2017-May-13 10:59N 51°21' E 002°25'4 7.4
2017-May-13 10:30N 51°19' E 002°20'7 9.6
2017-May-13 09:49N 51°15' E 002°12'3 9.5
2017-May-13 09:30N 51°14' E 002°08'5 9.2
2017-May-13 09:00N 51°11' E 002°01'5 9.2
2017-May-13 08:30N 51°09' E 001°55'5 9.1
2017-May-13 08:01N 51°07' E 001°48'4 8.9
2017-May-13 07:31N 51°04' E 001°43'4 8.7
2017-May-13 07:00N 51°01' E 001°38'4 8.3
2017-May-13 06:30N 50°58' E 001°34'  
Track history (hours):
 
Tides and Currents Weather Stations Pressure Air Temp Water Temp Dewpoint Dewpoint Depression Visibility Wind Speed Wind Dir Waves Ship Positions

Arklow Wind

Last reported at 2017-May-23 06:30 UTC. Time now 2017-May-23 06:55 UTC.
Position N 38°50' W 010°06'.

Length 136 m; draft 5.5 m.

Type: Cargo ship. MMSI: 250506000.

Date/timePositionNaut miles runAvg speedWind from/ knotsBaromVisibWave heightAir tempDewpointWater temp
2017-May-23 06:30N 38°50' W 010°06'612.2
2017-May-23 06:00N 38°56' W 010°06'612.1
2017-May-23 05:30N 39°02' W 010°06'612.3
2017-May-23 05:00N 39°09' W 010°07'612.3
2017-May-23 04:30N 39°15' W 010°06'811.7
2017-May-23 03:50N 39°23' W 010°07'711.9
2017-May-23 03:17N 39°29' W 010°06'311.8
2017-May-23 03:00N 39°32' W 010°06'612.0
2017-May-23 02:30N 39°38' W 010°06'1811.9
2017-May-23 01:02N 39°56' W 010°07'111.9
2017-May-23 00:59N 39°56' W 010°07'911.9
2017-May-23 00:13N 40°06' W 010°07'612.0
2017-May-22 23:43N 40°12' W 010°07'312.1
2017-May-22 23:26N 40°15' W 010°07'911.9
2017-May-22 22:42N 40°24' W 010°07'312.0
2017-May-22 22:25N 40°27' W 010°07'812.0
2017-May-22 21:44N 40°35' W 010°07'712.1
2017-May-22 21:07N 40°43' W 010°07'512.1
2017-May-22 20:41N 40°48' W 010°07'53711.5
2017-May-20 21:54N 49°05' W 005°20'511.1
2017-May-20 21:29N 49°07' W 005°14'7211.7
2017-May-20 15:18N 49°43' W 003°38'411.0
2017-May-20 14:56N 49°45' W 003°32'510.8
2017-May-20 14:30N 49°48' W 003°26'1110.6
2017-May-20 13:30N 49°53' W 003°12'510.7
2017-May-20 13:00N 49°56' W 003°05'510.8
2017-May-20 12:30N 49°57' W 002°57'511.0
2017-May-20 12:00N 49°59' W 002°48'611.2
2017-May-20 11:30N 50°00' W 002°40'7512.7
2017-May-20 05:36N 49°41' W 000°47'112.1
2017-May-20 05:30N 49°40' W 000°45'611.9
2017-May-20 05:00N 49°38' W 000°37'611.5
2017-May-20 04:30N 49°36' W 000°29'611.2
2017-May-20 04:00N 49°34' W 000°21'611.3
2017-May-20 03:30N 49°31' W 000°13'611.5
2017-May-20 03:00N 49°29' W 000°05'510.7
2017-May-20 02:30N 49°27' E 000°03'510.9
2017-May-20 02:00N 49°26' E 000°11'5 9.8
2017-May-20 01:30N 49°26' E 000°18'5 9.8
2017-May-20 01:00N 49°27' E 000°26'4 7.9
2017-May-20 00:30N 49°29' E 000°31'4 8.2
2017-May-20 00:00N 49°26' E 000°36'  
2017-May-17 13:34N 49°28' E 000°56'5 5.1
2017-May-17 12:37N 49°27' E 000°49'112.4
2017-May-17 12:31N 49°28' E 000°49'6 7.7
2017-May-17 11:45N 49°29' E 000°40'313.4
2017-May-17 11:30N 49°26' E 000°37'611.7
2017-May-17 11:00N 49°29' E 000°30'612.7
2017-May-17 10:30N 49°26' E 000°21'714.0
2017-May-17 10:00N 49°26' E 000°11'713.4
2017-May-17 09:30N 49°28' E 000°01'612.1
2017-May-17 09:00N 49°30' W 000°08'611.4
2017-May-17 08:30N 49°36' W 000°11'612.7
2017-May-17 08:00N 49°42' W 000°09'612.5
2017-May-17 07:30N 49°48' W 000°08'611.4
2017-May-17 07:00N 49°54' W 000°07'510.0
2017-May-17 06:30N 49°59' W 000°07'611.4
2017-May-17 06:00N 50°05' W 000°07'713.4
2017-May-17 05:30N 50°11' W 000°07'713.5
2017-May-17 05:00N 50°18' W 000°05'713.6
2017-May-17 04:30N 50°25' W 000°03'612.5
2017-May-17 04:00N 50°29' E 000°04'713.3
2017-May-17 03:30N 50°32' E 000°13'612.7
2017-May-17 03:01N 50°35' E 000°22'612.5
2017-May-17 02:30N 50°38' E 000°31'612.4
2017-May-17 02:01N 50°41' E 000°39'612.3
2017-May-17 01:30N 50°44' E 000°47'612.4
2017-May-17 01:00N 50°48' E 000°55'612.9
2017-May-17 00:31N 50°52' E 001°03'713.3
2017-May-17 00:00N 50°56' E 001°11'714.1
2017-May-16 23:30N 51°00' E 001°20'815.2
2017-May-16 23:00N 51°05' E 001°29'815.8
2017-May-16 22:30N 51°10' E 001°39'714.9
2017-May-16 22:00N 51°16' E 001°48'714.5
2017-May-16 21:30N 51°21' E 001°55'611.4
2017-May-16 21:00N 51°24' E 002°03'713.6
2017-May-16 20:30N 51°21' E 002°13'612.8
2017-May-16 20:00N 51°21' E 002°23'713.2
2017-May-16 19:28N 51°23' E 002°34'613.2
2017-May-16 18:59N 51°22' E 002°44'612.2
2017-May-16 18:30N 51°23' E 002°53'612.0
2017-May-16 18:00N 51°25' E 003°03'612.3
2017-May-16 17:30N 51°25' E 003°12'612.3
2017-May-16 17:00N 51°25' E 003°22'612.1
2017-May-16 16:30N 51°25' E 003°32'510.1
2017-May-16 16:00N 51°25' E 003°40'611.4
2017-May-16 15:30N 51°21' E 003°47'510.1
2017-May-16 15:00N 51°22' E 003°55'510.1
2017-May-16 14:30N 51°26' E 004°00'8 8.4
2017-May-16 13:30N 51°23' E 004°13'4 7.6
2017-May-16 13:00N 51°21' E 004°17'0 0.0
2017-May-16 12:30N 51°21' E 004°17'0 0.0
2017-May-16 12:01N 51°21' E 004°17'1 1.6
2017-May-16 11:30N 51°20' E 004°18'2 3.7
2017-May-16 11:00N 51°18' E 004°19'2 4.0
2017-May-16 10:30N 51°17' E 004°21'2 3.2
2017-May-16 10:00N 51°16' E 004°22'0 0.0
2017-May-16 09:30N 51°16' E 004°22'0 0.0
2017-May-16 09:00N 51°16' E 004°22'0 0.0
2017-May-16 08:30N 51°16' E 004°22'0 0.0
2017-May-16 08:00N 51°16' E 004°22'0 0.0
2017-May-16 07:30N 51°16' E 004°22'0 0.0
2017-May-16 07:00N 51°16' E 004°22'0 0.0
2017-May-16 06:30N 51°16' E 004°22'0 0.0
2017-May-16 06:00N 51°16' E 004°22'0 0.0
2017-May-16 05:30N 51°16' E 004°22'0 0.0
2017-May-16 05:00N 51°16' E 004°22'0 0.0
2017-May-16 04:30N 51°16' E 004°22'0 0.0
2017-May-16 04:00N 51°16' E 004°22'0 0.0
2017-May-16 03:30N 51°16' E 004°22'0 0.0
2017-May-16 03:00N 51°16' E 004°22'0 0.0
2017-May-16 02:30N 51°16' E 004°22'0 0.0
2017-May-16 02:00N 51°16' E 004°22'0 0.0
2017-May-16 01:30N 51°16' E 004°22'0 0.0
2017-May-16 00:57N 51°16' E 004°22'0 0.0
2017-May-16 00:30N 51°16' E 004°22'0 0.0
2017-May-16 00:00N 51°16' E 004°22'0 0.0
2017-May-15 23:30N 51°16' E 004°22'0 0.0
2017-May-15 23:00N 51°16' E 004°22'0 0.0
2017-May-15 22:30N 51°16' E 004°22'0 0.0
2017-May-15 22:00N 51°16' E 004°22'0 0.0
2017-May-15 21:30N 51°16' E 004°22'0 0.0
2017-May-15 21:00N 51°16' E 004°22'0 0.0
2017-May-15 20:30N 51°16' E 004°22'0 0.0
2017-May-15 20:00N 51°16' E 004°22'0 0.0
2017-May-15 19:30N 51°16' E 004°22'0 0.0
2017-May-15 19:00N 51°16' E 004°22'0 0.0
2017-May-15 18:30N 51°16' E 004°22'0 0.0
2017-May-15 18:00N 51°16' E 004°22'0 0.0
2017-May-15 17:30N 51°16' E 004°22'0 0.0
2017-May-15 17:00N 51°16' E 004°22'0 0.0
2017-May-15 16:30N 51°16' E 004°22'0 0.0
2017-May-15 16:00N 51°16' E 004°22'0 0.0
2017-May-15 15:30N 51°16' E 004°22'0 0.0
2017-May-15 14:57N 51°16' E 004°22'0 0.0
2017-May-15 14:00N 51°16' E 004°22'0 0.0
2017-May-15 13:30N 51°16' E 004°22'0 0.0
2017-May-15 13:00N 51°16' E 004°22'0 0.0
2017-May-15 12:30N 51°16' E 004°22'0 0.0
2017-May-15 12:00N 51°16' E 004°22'0 0.0
2017-May-15 11:30N 51°16' E 004°22'0 0.0
2017-May-15 11:00N 51°16' E 004°22'0 0.0
2017-May-15 10:30N 51°16' E 004°22'0 0.0
2017-May-15 10:00N 51°16' E 004°22'0 0.0
2017-May-15 09:30N 51°16' E 004°22'0 0.0
2017-May-15 09:00N 51°16' E 004°22'0 0.0
2017-May-15 08:30N 51°16' E 004°22'0 0.0
2017-May-15 08:00N 51°16' E 004°22'0 0.0
2017-May-15 07:30N 51°16' E 004°22'0 0.0
2017-May-15 07:00N 51°16' E 004°22'0 0.0
2017-May-15 06:30N 51°16' E 004°22'0 0.0
2017-May-15 06:00N 51°16' E 004°22'0 0.0
2017-May-15 05:30N 51°16' E 004°22'0 0.0
2017-May-15 05:00N 51°16' E 004°22'0 0.0
2017-May-15 04:30N 51°16' E 004°22'0 0.0
2017-May-15 04:00N 51°16' E 004°22'0 0.0
2017-May-15 03:29N 51°16' E 004°22'0 0.0
2017-May-15 03:00N 51°16' E 004°22'0 0.0
2017-May-15 02:29N 51°16' E 004°22'0 0.0
2017-May-15 01:59N 51°16' E 004°22'0 0.0
2017-May-15 01:29N 51°16' E 004°22'0 0.0
2017-May-15 00:59N 51°16' E 004°22'0 0.0
2017-May-15 00:29N 51°16' E 004°22'0 0.0
2017-May-14 23:50N 51°16' E 004°22'0 0.0
2017-May-14 23:29N 51°16' E 004°22'0 0.0
2017-May-14 22:59N 51°16' E 004°22'0 0.0
2017-May-14 22:29N 51°16' E 004°22'0 0.0
2017-May-14 21:59N 51°16' E 004°22'0 0.0
2017-May-14 21:29N 51°16' E 004°22'0 0.0
2017-May-14 20:59N 51°16' E 004°22'0 0.0
2017-May-14 20:29N 51°16' E 004°22'0 0.0
2017-May-14 19:59N 51°16' E 004°22'0 0.0
2017-May-14 19:29N 51°16' E 004°22'0 0.0
2017-May-14 18:59N 51°16' E 004°22'0 0.0
2017-May-14 18:29N 51°16' E 004°22'0 0.0
2017-May-14 17:59N 51°16' E 004°22'0 0.0
2017-May-14 17:29N 51°16' E 004°22'0 0.0
2017-May-14 16:59N 51°16' E 004°22'0 0.0
2017-May-14 16:29N 51°16' E 004°22'0 0.0
2017-May-14 15:59N 51°16' E 004°22'0 0.0
2017-May-14 15:29N 51°16' E 004°22'0 0.0
2017-May-14 14:59N 51°16' E 004°22'0 0.0
2017-May-14 14:29N 51°16' E 004°22'0 0.0
2017-May-14 13:29N 51°16' E 004°22'0 0.0
2017-May-14 12:59N 51°16' E 004°22'0 0.0
2017-May-14 12:29N 51°16' E 004°22'0 0.0
2017-May-14 11:59N 51°16' E 004°22'0 0.0
2017-May-14 11:29N 51°16' E 004°22'0 0.0
2017-May-14 10:59N 51°16' E 004°22'0 0.0
2017-May-14 10:29N 51°16' E 004°22'0 0.0
2017-May-14 09:59N 51°16' E 004°22'0 0.0
2017-May-14 09:29N 51°16' E 004°22'0 0.0
2017-May-14 08:59N 51°16' E 004°22'0 0.0
2017-May-14 08:29N 51°16' E 004°22'0 0.0
2017-May-14 07:59N 51°16' E 004°22'0 0.0
2017-May-14 07:29N 51°16' E 004°22'0 0.0
2017-May-14 06:59N 51°16' E 004°22'0 0.0
2017-May-14 06:29N 51°16' E 004°22'0 0.0
2017-May-14 05:59N 51°16' E 004°22'0 0.0
2017-May-14 05:29N 51°16' E 004°22'0 0.0
2017-May-14 04:59N 51°16' E 004°22'0 0.0
2017-May-14 04:29N 51°16' E 004°22'0 0.0
2017-May-14 03:59N 51°16' E 004°22'0 0.0
2017-May-14 03:29N 51°16' E 004°22'0 0.0
2017-May-14 02:59N 51°16' E 004°22'0 0.0
2017-May-14 02:29N 51°16' E 004°22'0 0.0
2017-May-14 01:59N 51°16' E 004°22'0 0.0
2017-May-14 01:29N 51°16' E 004°22'0 0.0
2017-May-14 00:59N 51°16' E 004°22'0 0.0
2017-May-14 00:29N 51°16' E 004°22'0 0.0
2017-May-13 23:59N 51°16' E 004°22'0 0.0
2017-May-13 23:29N 51°16' E 004°22'0 0.0
2017-May-13 22:59N 51°16' E 004°22'0 0.0
2017-May-13 22:29N 51°16' E 004°22'0 0.0
2017-May-13 21:59N 51°16' E 004°22'0 0.0
2017-May-13 21:29N 51°16' E 004°22'0 0.0
2017-May-13 20:59N 51°16' E 004°22'0 0.0
2017-May-13 20:29N 51°16' E 004°22'0 0.0
2017-May-13 19:59N 51°16' E 004°22'0 0.3
2017-May-13 19:30N 51°16' E 004°22'2 3.6
2017-May-13 19:00N 51°17' E 004°20'3 5.9
2017-May-13 18:30N 51°20' E 004°18'1 2.8
2017-May-13 18:00N 51°21' E 004°17'1 1.6
2017-May-13 17:30N 51°21' E 004°16'4 8.2
2017-May-13 17:00N 51°24' E 004°11'511.0
2017-May-13 16:30N 51°23' E 004°03'4 7.6
2017-May-13 16:00N 51°25' E 003°58'612.4
2017-May-13 15:30N 51°21' E 003°50'612.8
2017-May-13 15:00N 51°24' E 003°42'612.2
2017-May-13 14:30N 51°25' E 003°32'1515.2
2017-May-13 13:31N 51°24' E 003°08'713.5
2017-May-13 13:01N 51°22' E 002°57'714.3
2017-May-13 12:30N 51°22' E 002°46'610.1
2017-May-13 11:57N 51°22' E 002°37'3 7.4
2017-May-13 11:29N 51°22' E 002°31'4 7.7
2017-May-13 10:59N 51°21' E 002°25'4 7.4
2017-May-13 10:30N 51°19' E 002°20'7 9.6
2017-May-13 09:49N 51°15' E 002°12'3 9.5
2017-May-13 09:30N 51°14' E 002°08'5 9.2
2017-May-13 09:00N 51°11' E 002°01'5 9.2
2017-May-13 08:30N 51°09' E 001°55'5 9.1
2017-May-13 08:01N 51°07' E 001°48'4 8.9
2017-May-13 07:31N 51°04' E 001°43'4 8.7
2017-May-13 07:00N 51°01' E 001°38'4 8.3
2017-May-13 06:30N 50°58' E 001°34'  

Dump ship's entire track history